Nashville, Georgia
Current Conditions -  °F | °C
As of 9:58 PM on Monday 22 Dec 2014 (Local Time) from KVAD Reporting Station
Haze Haze  
Wind Chill: 56°   Ceiling: 200
Heat Index: 56°   Visibility: 1.7mi
Dew Point: 56°   Wind: 2mph
Humidity: 97%   Direction: NA
Pressure: 29.91"   Gusts: NA
Location:  31.21°N, 83.25°W
Report Text: KVAD 230258Z AUTO VRB02KT 1 3/4SM R36/3000FT BR OVC002 14/13 A2991 RMK AO2 SLP131 T01360131 50005 $
Loading
Personal Weather Stations






























Interactive Weather Map New forecast layout! Learn more

10-Day Weather Forecast

Advertisements
Track Severe Weather on mobile